Stowell, TX (77661)

03:08 PM CST am 23. Januar 2017 (GMT -0600)
High Island Fire Rescue | | Change Station
aktive Warnung: Low Water Advisory

Höhe 33 ft 29.56 °N, 94.39 °W | Updated 38 seconds ago

Heiter
Heiter
70.7 °F
gefühlte 75 °F
N
2.5
Wind Wechselnd Wind aus West-Nordwest
Gusts 2.5 mph

Heute
Max. -- | schwach -- °F
--% Regenrisiko
Gestern
Max. -- | schwach -- °F
Precip. -- inch
Druck 29.89 inch
Sichtweite 10.0 Meilen
Wolken Heiter
Hitzeindex 75 °F
Taupunkt 30 °F
Feuchtigkeit 22%
Regen 0.00 inch
Schneehöhe Nicht verfügbar..
7:11 AM 5:47 PM
Letztes Viertel, 16% visible
METAR KBMT 232055Z AUTO 32010KT 10SM CLR 22/M02 A2989 RMK AO2 T02211022
Druck 29.89 inch
Sichtweite 10.0 Meilen
Wolken Heiter
Hitzeindex 75 °F
Taupunkt 30 °F
Feuchtigkeit 22%
Regen 0.00 inch
Schneehöhe Nicht verfügbar..
7:11 AM 5:47 PM
Letztes Viertel, 16% visible
METAR KBMT 232055Z AUTO 32010KT 10SM CLR 22/M02 A2989 RMK AO2 T02211022

Get Your Daily Forecast Email!

Thanks for signing up!

Be on the lookout for a verification email in your inbox.

You'll start receiving the daily forecast at 8 AM.

×

10-Day Weather Forecast

Almanac

Astronomie

Jan. 23, 2017 Aufgang Untergang
Genaue Zeit
Bürgerliche Dämmerung
Nautische Dämmerung
Astronomische Dämmerung
Mond
Länge des sichtbaren Lichts
Tageslänge
Tomorrow will be .
, % of the Moon is Illuminated

Heutige Rekorde

State Highs State Lows

Community

WunderPhotos

Upload Photos

1,962,540 Fotos hochgeladen!

WunderBlog® & News

Nearby

Luftqualität

  Luftqualität LQ Index Schadstoff
Not available.

Schneehöhe

Station Depth Höhe

Erdbebenaktivität

Stadt Distance Mag. Time & Date
Minimum magnitude displayed is 2.5.

küstennahe Wassertemperaturen

Ort Temperatur

Stations

Wetterstationen in der Umgebung

Stationsstandort Temp. Windchill Taupunkt Feuchtigkeit Wind Precip. Höhe Aktualisiert Art
                   

Watches & Warnings

Low Water Advisory
Issued: 14:16 CST Jan. 23, 2017 – National Weather Service

... Low water advisory in effect until 10 PM CST this evening...

The National Weather Service in Houston/Galveston has issued a
low water advisory... which is in effect until 10 PM CST this
evening.

* Water levels... tide levels 1.5 to 2.5 feet below normal.

Precautionary/preparedness actions...

A low water advisory means water levels are expected to be
significantly below average. Mariners should use extreme caution
and transit at the slowest safe navigable speed to minimize
impact.